Time;durP1;ratioP1;P1;durP2;ratioP2;P2;SDS_P1;SDS_P2;PMS_P1;PMS_P2;Temp;Humidity;BMP_temperature;BMP_pressure;BME280_temperature;BME280_humidity;BME280_pressure;Samples;Min_cycle;Max_cycle;Signal;HPM_P1;HPM_P2
2021/07/20 00:00:19;;;;;;;27.42;15.80;;;18.30;99.90;;;;;;5089578;28;20481;-59
2021/07/20 00:02:47;;;;;;;25.38;14.93;;;18.50;99.90;;;;;;5088628;28;20388;-58
2021/07/20 00:05:15;;;;;;;25.73;15.70;;;18.60;99.90;;;;;;5075637;28;20390;-58
2021/07/20 00:07:42;;;;;;;26.33;16.10;;;18.60;99.90;;;;;;5075509;28;20413;-58
2021/07/20 00:10:14;;;;;;;25.42;15.10;;;18.80;99.90;;;;;;5088547;28;20407;-59
2021/07/20 00:12:40;;;;;;;26.48;15.57;;;18.80;99.90;;;;;;5084534;28;20395;-59
2021/07/20 00:15:09;;;;;;;26.98;16.40;;;18.90;99.90;;;;;;5072534;28;20889;-59
2021/07/20 00:17:35;;;;;;;27.10;14.97;;;18.90;99.90;;;;;;5072876;28;20411;-59
2021/07/20 00:20:05;;;;;;;27.02;15.43;;;18.90;99.90;;;;;;5092956;28;20398;-59
2021/07/20 00:22:30;;;;;;;26.10;16.07;;;18.90;99.90;;;;;;5085071;28;20810;-56
2021/07/20 00:24:56;;;;;;;28.58;15.05;;;18.80;99.90;;;;;;5071994;28;20383;-59
2021/07/20 00:27:22;;;;;;;25.25;15.45;;;18.60;99.90;;;;;;5072457;28;20384;-59
2021/07/20 00:29:47;;;;;;;26.10;15.97;;;18.40;99.90;;;;;;5070490;28;20733;-60
2021/07/20 00:32:13;;;;;;;26.98;16.13;;;18.30;99.90;;;;;;5072045;28;20517;-60
2021/07/20 00:34:40;;;;;;;26.90;14.90;;;18.20;99.90;;;;;;5081316;28;20855;-60
2021/07/20 00:37:06;;;;;;;26.10;15.30;;;18.10;99.90;;;;;;5085713;28;20454;-59
2021/07/20 00:39:32;;;;;;;27.15;15.30;;;18.00;99.90;;;;;;5081851;28;20519;-56
2021/07/20 00:41:58;;;;;;;26.15;15.23;;;17.90;99.90;;;;;;5071598;28;20738;-58
2021/07/20 00:44:24;;;;;;;27.05;15.40;;;17.80;99.90;;;;;;5083216;28;20386;-58
2021/07/20 00:46:50;;;;;;;28.33;15.95;;;17.70;99.90;;;;;;5071200;28;20376;-59
2021/07/20 00:49:16;;;;;;;27.67;16.10;;;17.60;99.90;;;;;;5072238;28;20380;-58
2021/07/20 00:51:42;;;;;;;27.95;15.90;;;17.60;99.90;;;;;;5070094;28;20845;-59
2021/07/20 00:54:08;;;;;;;28.33;15.02;;;17.60;99.90;;;;;;5071795;28;20562;-59
2021/07/20 00:56:35;;;;;;;27.98;16.17;;;17.50;99.90;;;;;;5070867;28;20371;-58
2021/07/20 00:59:01;;;;;;;26.45;16.02;;;17.40;99.90;;;;;;5071778;28;20399;-59
2021/07/20 01:01:28;;;;;;;26.93;16.20;;;17.30;99.90;;;;;;5071778;28;20466;-59
2021/07/20 01:03:55;;;;;;;26.40;15.53;;;17.30;99.90;;;;;;5070948;28;20389;-59
2021/07/20 01:06:22;;;;;;;25.23;15.00;;;17.20;99.90;;;;;;5071640;28;20517;-59
2021/07/20 01:08:50;;;;;;;27.02;15.50;;;17.20;99.90;;;;;;5070612;28;20438;-59
2021/07/20 01:11:16;;;;;;;25.35;14.68;;;17.20;99.90;;;;;;5071908;28;20382;-59
2021/07/20 01:13:43;;;;;;;27.20;15.95;;;17.30;99.90;;;;;;5070816;28;20417;-58
2021/07/20 01:16:10;;;;;;;24.83;14.55;;;17.30;99.90;;;;;;5071532;28;20492;-59
2021/07/20 01:18:38;;;;;;;24.17;15.68;;;17.30;99.90;;;;;;5070657;28;20432;-56
2021/07/20 01:21:05;;;;;;;25.70;13.98;;;17.40;99.90;;;;;;5071192;28;20392;-58
2021/07/20 01:23:38;;;;;;;23.30;14.05;;;17.40;99.90;;;;;;5083097;28;20401;-56
2021/07/20 01:26:05;;;;;;;23.83;14.43;;;17.50;99.90;;;;;;5091189;28;20382;-59
2021/07/20 01:28:32;;;;;;;27.95;14.55;;;17.40;99.90;;;;;;5091360;28;20609;-56
2021/07/20 01:31:04;;;;;;;25.08;14.88;;;17.40;99.90;;;;;;5086233;28;20419;-59
2021/07/20 01:33:32;;;;;;;27.02;15.32;;;17.30;99.90;;;;;;5071268;28;20897;-56
2021/07/20 01:36:02;;;;;;;26.73;14.60;;;17.30;99.90;;;;;;5071063;28;20442;-57
2021/07/20 01:38:30;;;;;;;24.45;14.27;;;17.20;99.90;;;;;;5071271;28;20411;-59
2021/07/20 01:41:07;;;;;;;25.17;14.82;;;17.30;99.90;;;;;;5070244;28;20750;-59
2021/07/20 01:43:35;;;;;;;25.40;14.68;;;17.20;99.90;;;;;;5073298;28;20497;-56
2021/07/20 01:46:02;;;;;;;24.25;14.75;;;17.20;99.90;;;;;;5090227;28;20430;-58
2021/07/20 01:48:33;;;;;;;24.60;14.32;;;17.30;99.90;;;;;;5091327;28;20387;-59
2021/07/20 01:51:01;;;;;;;26.23;14.70;;;17.30;99.90;;;;;;5090970;28;20370;-59
2021/07/20 01:53:27;;;;;;;24.75;14.25;;;17.30;99.90;;;;;;5090657;28;20389;-59
2021/07/20 01:55:56;;;;;;;25.20;14.30;;;17.30;99.90;;;;;;5090305;28;20462;-59
2021/07/20 01:58:21;;;;;;;24.63;14.20;;;17.30;99.90;;;;;;5090911;28;20433;-59
2021/07/20 02:00:48;;;;;;;24.97;15.20;;;17.30;99.90;;;;;;5089799;28;20736;-59
2021/07/20 02:08:48;;;;;;;25.52;14.05;;;17.20;99.90;;;;;;5089717;28;20377;-59
2021/07/20 02:11:19;;;;;;;25.40;13.73;;;17.10;99.90;;;;;;5073256;28;20420;-59
2021/07/20 02:13:51;;;;;;;24.45;14.23;;;17.00;99.90;;;;;;5069630;28;20372;-59
2021/07/20 02:16:22;;;;;;;28.35;14.82;;;17.00;99.90;;;;;;5070412;28;20467;-59
2021/07/20 02:18:52;;;;;;;22.25;13.40;;;16.90;99.90;;;;;;5069632;28;20414;-60
2021/07/20 02:21:19;;;;;;;24.50;15.10;;;16.90;99.90;;;;;;5070299;28;20384;-59
2021/07/20 02:23:49;;;;;;;23.50;14.65;;;16.90;99.90;;;;;;5068128;28;20474;-59
2021/07/20 02:26:15;;;;;;;25.90;13.98;;;16.90;99.90;;;;;;5070473;28;20395;-59
2021/07/20 02:28:41;;;;;;;26.75;14.73;;;16.90;99.90;;;;;;5069357;28;20391;-59
2021/07/20 02:31:10;;;;;;;28.30;14.93;;;16.90;99.90;;;;;;5069755;28;20455;-59
2021/07/20 02:33:39;;;;;;;23.63;14.10;;;16.90;99.90;;;;;;5069753;28;20386;-57
2021/07/20 02:36:06;;;;;;;27.10;14.32;;;16.90;99.90;;;;;;5070101;28;20391;-59
2021/07/20 02:38:33;;;;;;;24.90;14.70;;;16.90;99.90;;;;;;5069232;28;20469;-56
2021/07/20 02:41:00;;;;;;;26.55;15.18;;;16.70;99.90;;;;;;5069324;28;20380;-59
2021/07/20 02:43:26;;;;;;;25.75;14.88;;;16.50;99.90;;;;;;5070075;28;20388;-60
2021/07/20 02:45:54;;;;;;;27.95;15.20;;;16.40;99.90;;;;;;5069131;28;21041;-62
2021/07/20 02:48:22;;;;;;;24.53;14.77;;;16.30;99.90;;;;;;5069528;28;20462;-59
2021/07/20 02:50:50;;;;;;;26.70;14.88;;;16.20;99.90;;;;;;5069137;28;20434;-60
2021/07/20 02:53:16;;;;;;;26.30;13.75;;;16.20;99.90;;;;;;5069344;28;20850;-60
2021/07/20 02:55:43;;;;;;;24.73;14.25;;;16.80;99.90;;;;;;5068930;28;20399;-59
2021/07/20 02:58:09;;;;;;;26.73;13.40;;;16.20;99.90;;;;;;5069761;28;20468;-60
2021/07/20 03:00:37;;;;;;;24.20;14.05;;;16.20;99.90;;;;;;5069131;28;20376;-57
2021/07/20 03:03:02;;;;;;;23.60;13.75;;;16.10;99.90;;;;;;5069686;28;20392;-60
2021/07/20 03:05:28;;;;;;;26.35;13.65;;;16.10;99.90;;;;;;5069583;28;20391;-60
2021/07/20 03:07:57;;;;;;;25.20;14.70;;;15.90;99.90;;;;;;5068987;28;20756;-60
2021/07/20 03:10:27;;;;;;;26.58;14.00;;;15.80;99.90;;;;;;5069602;28;20415;-60
2021/07/20 03:12:57;;;;;;;23.85;13.80;;;15.70;99.90;;;;;;5068333;28;20622;-60
2021/07/20 03:15:24;;;;;;;23.90;13.90;;;15.70;99.90;;;;;;5069410;28;20382;-60
2021/07/20 03:17:52;;;;;;;25.63;13.52;;;15.70;99.90;;;;;;5068508;28;20411;-59
2021/07/20 03:20:19;;;;;;;22.70;14.15;;;15.70;99.90;;;;;;5069120;28;20407;-59
2021/07/20 03:22:45;;;;;;;24.20;13.50;;;15.70;99.90;;;;;;5068886;28;20376;-60
2021/07/20 03:25:13;;;;;;;28.42;15.38;;;15.70;99.90;;;;;;5069353;28;20391;-61
2021/07/20 03:27:41;;;;;;;26.17;14.00;;;15.70;99.90;;;;;;5068253;28;20757;-59
2021/07/20 03:30:08;;;;;;;21.88;13.13;;;15.70;99.90;;;;;;5069717;28;20379;-59
2021/07/20 03:32:34;;;;;;;26.70;13.80;;;15.60;99.90;;;;;;5088505;28;20989;-57
2021/07/20 03:35:01;;;;;;;23.50;13.13;;;15.70;99.90;;;;;;5088836;28;20472;-60
2021/07/20 03:37:28;;;;;;;23.60;13.05;;;15.60;99.90;;;;;;5089497;28;20382;-59
2021/07/20 03:39:55;;;;;;;21.50;12.68;;;15.60;99.90;;;;;;5088481;28;20425;-60
2021/07/20 03:42:24;;;;;;;26.48;13.80;;;15.70;99.90;;;;;;5088565;28;20926;-59
2021/07/20 03:44:51;;;;;;;23.13;12.95;;;15.70;99.90;;;;;;5088571;28;20870;-58
2021/07/20 03:47:17;;;;;;;23.90;13.83;;;15.80;99.90;;;;;;5089328;28;20543;-60
2021/07/20 03:49:44;;;;;;;25.37;13.63;;;15.80;99.90;;;;;;5089571;28;20497;-60
2021/07/20 03:52:12;;;;;;;22.08;12.90;;;15.90;99.90;;;;;;5091625;28;20844;-60
2021/07/20 03:54:39;;;;;;;24.08;13.88;;;16.00;99.90;;;;;;5090393;28;20382;-60
2021/07/20 03:57:05;;;;;;;23.50;13.45;;;16.10;99.90;;;;;;5091236;28;20370;-60
2021/07/20 03:59:34;;;;;;;23.73;13.10;;;16.20;99.90;;;;;;5088758;28;20409;-57
2021/07/20 04:02:01;;;;;;;24.10;13.23;;;16.10;99.90;;;;;;5088635;28;20379;-60
2021/07/20 04:04:34;;;;;;;22.67;13.07;;;16.20;99.90;;;;;;5086093;28;20390;-60
2021/07/20 04:07:01;;;;;;;23.20;12.63;;;16.30;99.90;;;;;;5096520;28;20403;-60
2021/07/20 04:09:27;;;;;;;23.63;12.65;;;16.40;99.90;;;;;;5087348;28;20459;-60
2021/07/20 04:11:56;;;;;;;21.42;12.63;;;16.30;99.90;;;;;;5088546;28;20913;-60
2021/07/20 04:14:23;;;;;;;22.10;12.43;;;16.40;99.90;;;;;;5086508;28;20471;-61
2021/07/20 04:16:50;;;;;;;25.45;12.35;;;16.50;99.90;;;;;;5088250;28;20382;-60
2021/07/20 04:19:16;;;;;;;22.38;12.40;;;16.50;99.90;;;;;;5088646;28;20429;-60
2021/07/20 04:21:42;;;;;;;26.17;13.27;;;16.50;99.90;;;;;;5088042;28;20382;-60
2021/07/20 04:24:10;;;;;;;24.77;14.67;;;16.50;99.90;;;;;;5088961;28;20410;-60
2021/07/20 04:26:37;;;;;;;24.38;14.48;;;16.70;99.90;;;;;;5090640;28;20397;-57
2021/07/20 04:29:02;;;;;;;23.95;13.63;;;16.70;99.90;;;;;;5092579;28;20412;-60
2021/07/20 04:31:30;;;;;;;20.58;12.57;;;16.60;99.90;;;;;;5094192;28;20418;-60
2021/07/20 04:33:56;;;;;;;23.67;12.47;;;16.60;99.90;;;;;;5091218;28;20443;-59
2021/07/20 04:36:23;;;;;;;24.13;13.15;;;16.60;99.90;;;;;;5091940;28;20404;-59
2021/07/20 04:38:49;;;;;;;22.27;12.90;;;16.60;99.90;;;;;;5088876;28;20405;-60
2021/07/20 04:41:20;;;;;;;22.48;13.20;;;16.60;99.90;;;;;;5092133;28;20366;-60
2021/07/20 04:43:47;;;;;;;21.80;13.35;;;16.60;99.90;;;;;;5091184;28;20404;-60
2021/07/20 04:46:15;;;;;;;21.60;12.80;;;16.60;99.90;;;;;;5091715;28;20443;-61
2021/07/20 04:48:41;;;;;;;25.30;12.70;;;16.60;99.90;;;;;;5092154;28;20386;-60
2021/07/20 04:51:07;;;;;;;22.37;12.60;;;16.70;99.90;;;;;;5092584;28;20385;-60
2021/07/20 04:53:36;;;;;;;26.27;13.07;;;16.70;99.90;;;;;;5092347;28;20435;-59
2021/07/20 04:56:01;;;;;;;24.15;12.70;;;16.90;99.90;;;;;;5092114;28;20374;-60
2021/07/20 04:58:27;;;;;;;23.75;12.93;;;17.00;99.90;;;;;;5091968;28;20740;-60
2021/07/20 05:00:54;;;;;;;25.83;12.80;;;17.20;99.90;;;;;;5091480;28;20378;-59
2021/07/20 05:03:22;;;;;;;23.17;11.95;;;17.50;99.90;;;;;;5091504;28;20634;-57
2021/07/20 05:05:51;;;;;;;23.80;12.02;;;18.10;99.90;;;;;;5089074;28;20393;-58
2021/07/20 05:08:19;;;;;;;20.88;11.60;;;18.70;99.90;;;;;;5099414;28;20412;-58
2021/07/20 05:10:48;;;;;;;20.23;12.07;;;19.40;99.90;;;;;;5089541;28;20902;-58
2021/07/20 05:13:22;;;;;;;20.17;12.07;;;20.10;99.90;;;;;;5089853;28;20390;-61
2021/07/20 05:15:55;;;;;;;21.00;12.05;;;20.30;99.90;;;;;;5088732;28;20382;-60
2021/07/20 05:18:22;;;;;;;19.90;12.00;;;20.90;99.90;;;;;;5093722;28;20889;-60
2021/07/20 05:20:49;;;;;;;19.60;11.03;;;21.60;99.90;;;;;;5089633;28;20744;-60
2021/07/20 05:23:16;;;;;;;19.83;11.65;;;22.40;99.90;;;;;;5091336;28;21019;-60
2021/07/20 05:25:45;;;;;;;19.70;11.50;;;22.90;99.90;;;;;;5098124;28;20381;-60
2021/07/20 05:28:12;;;;;;;18.52;11.70;;;23.00;99.90;;;;;;5101170;28;20691;-58
2021/07/20 05:30:41;;;;;;;18.35;11.18;;;22.80;99.90;;;;;;5103764;28;20372;-55
2021/07/20 05:33:08;;;;;;;20.35;11.80;;;23.60;99.90;;;;;;5094755;28;20378;-58
2021/07/20 05:35:34;;;;;;;21.53;12.20;;;23.80;99.90;;;;;;5106639;28;20398;-58
2021/07/20 05:38:01;;;;;;;23.30;12.07;;;23.60;99.90;;;;;;5098995;28;20396;-57
2021/07/20 05:40:27;;;;;;;18.30;11.38;;;23.50;99.90;;;;;;5098947;28;20446;-58
2021/07/20 05:42:55;;;;;;;21.65;12.38;;;23.70;99.90;;;;;;5095503;28;20911;-57
2021/07/20 05:45:22;;;;;;;19.15;11.82;;;23.70;99.90;;;;;;5091116;28;20386;-57
2021/07/20 05:47:49;;;;;;;20.25;11.02;;;23.70;99.90;;;;;;5081799;28;20710;-57
2021/07/20 05:50:16;;;;;;;20.10;11.87;;;23.50;99.90;;;;;;5073504;28;20402;-56
2021/07/20 05:52:45;;;;;;;20.58;11.65;;;23.70;99.90;;;;;;5086952;28;20455;-58
2021/07/20 05:55:12;;;;;;;20.55;12.60;;;23.20;99.90;;;;;;5090786;28;20385;-57
2021/07/20 05:57:47;;;;;;;20.35;12.00;;;23.30;99.90;;;;;;5090303;28;20374;-56
2021/07/20 06:00:15;;;;;;;22.55;12.32;;;23.80;99.90;;;;;;5090477;28;20467;-57
2021/07/20 06:02:42;;;;;;;20.13;11.50;;;24.80;99.90;;;;;;5089876;28;20409;-57
2021/07/20 06:05:12;;;;;;;19.92;11.63;;;25.60;99.90;;;;;;5090624;28;20386;-60
2021/07/20 06:07:38;;;;;;;18.55;11.80;;;26.30;99.90;;;;;;5089962;28;20386;-58
2021/07/20 06:10:04;;;;;;;19.03;11.20;;;26.10;99.90;;;;;;5090621;28;20394;-58
2021/07/20 06:12:31;;;;;;;19.50;11.80;;;25.90;99.90;;;;;;5089432;28;20506;-58
2021/07/20 06:14:58;;;;;;;17.63;10.87;;;25.80;99.90;;;;;;5089741;28;20397;-58
2021/07/20 06:17:24;;;;;;;19.25;11.25;;;26.00;99.90;;;;;;5090983;28;20386;-59
2021/07/20 06:19:51;;;;;;;18.13;11.25;;;26.10;99.90;;;;;;5089709;28;20454;-58
2021/07/20 06:22:22;;;;;;;16.90;11.47;;;26.10;99.90;;;;;;5088063;28;20444;-57
2021/07/20 06:24:48;;;;;;;19.02;10.70;;;25.70;99.90;;;;;;5085474;28;20469;-60
2021/07/20 06:27:15;;;;;;;18.63;11.60;;;26.40;99.90;;;;;;5090330;28;20508;-58
2021/07/20 06:29:50;;;;;;;19.50;12.63;;;26.30;99.90;;;;;;5089491;28;20882;-57
2021/07/20 06:32:18;;;;;;;16.23;12.38;;;26.50;99.70;;;;;;5090226;28;20386;-58
2021/07/20 06:34:44;;;;;;;31.67;11.30;;;27.20;98.70;;;;;;5089335;28;20378;-58
2021/07/20 06:37:10;;;;;;;17.73;11.00;;;27.80;96.70;;;;;;5089930;28;20735;-57
2021/07/20 06:39:37;;;;;;;19.88;13.20;;;27.80;95.90;;;;;;5089040;28;20646;-57
2021/07/20 06:42:04;;;;;;;18.27;11.48;;;27.70;96.20;;;;;;5089856;28;20393;-61
2021/07/20 06:44:31;;;;;;;17.60;12.32;;;27.60;96.90;;;;;;5090111;28;20431;-58
2021/07/20 06:46:59;;;;;;;18.88;12.68;;;28.70;94.70;;;;;;5076867;28;20395;-58
2021/07/20 06:49:26;;;;;;;18.90;11.80;;;28.70;94.30;;;;;;5088957;28;20392;-58
2021/07/20 06:51:51;;;;;;;18.98;11.30;;;28.60;93.20;;;;;;5069855;28;20989;-58
2021/07/20 06:54:17;;;;;;;16.92;10.10;;;27.80;95.20;;;;;;5070585;28;20387;-58
2021/07/20 06:56:51;;;;;;;17.05;12.05;;;28.30;94.00;;;;;;5077319;28;20896;-58
2021/07/20 06:59:19;;;;;;;17.30;12.68;;;29.00;93.20;;;;;;5073870;28;20489;-58
2021/07/20 07:01:46;;;;;;;15.90;11.60;;;29.60;90.70;;;;;;5088854;28;20386;-58
2021/07/20 07:04:25;;;;;;;18.90;13.48;;;29.60;89.10;;;;;;5077339;28;20429;-58
2021/07/20 07:06:55;;;;;;;16.45;12.23;;;29.00;90.60;;;;;;5077611;28;20422;-58
2021/07/20 07:09:26;;;;;;;19.52;13.38;;;29.10;90.70;;;;;;5069328;28;20412;-59
2021/07/20 07:11:52;;;;;;;18.40;13.60;;;29.20;90.10;;;;;;5068411;28;20368;-58
2021/07/20 07:14:19;;;;;;;21.27;13.70;;;29.60;88.40;;;;;;5068952;28;20899;-58
2021/07/20 07:16:47;;;;;;;17.92;13.40;;;29.40;89.10;;;;;;5068468;28;20371;-58
2021/07/20 07:19:19;;;;;;;19.05;12.55;;;29.20;89.50;;;;;;5069041;28;20426;-58
2021/07/20 07:21:46;;;;;;;17.35;13.10;;;28.50;90.20;;;;;;5073355;28;20443;-60
2021/07/20 07:24:14;;;;;;;17.58;12.13;;;28.40;91.10;;;;;;5082261;28;20394;-58
2021/07/20 07:26:41;;;;;;;16.95;12.25;;;28.80;90.10;;;;;;5068493;28;20414;-57
2021/07/20 07:29:12;;;;;;;18.23;11.80;;;29.00;89.20;;;;;;5086386;28;20856;-58
2021/07/20 07:31:38;;;;;;;16.83;12.27;;;29.00;88.90;;;;;;5089454;28;20384;-58
2021/07/20 07:34:04;;;;;;;17.33;11.70;;;29.10;88.40;;;;;;5088946;28;20442;-58
2021/07/20 07:36:32;;;;;;;16.90;11.55;;;29.10;90.00;;;;;;5088626;28;20942;-58
2021/07/20 07:39:05;;;;;;;15.43;11.60;;;30.00;85.70;;;;;;5084800;28;21186;-59
2021/07/20 07:41:37;;;;;;;19.08;12.45;;;29.80;85.70;;;;;;5088256;28;20402;-59
2021/07/20 07:44:04;;;;;;;15.35;9.70;;;30.60;82.70;;;;;;5086843;28;20472;-58
2021/07/20 07:46:32;;;;;;;18.00;9.73;;;30.40;80.70;;;;;;5073745;28;20380;-59
2021/07/20 07:48:59;;;;;;;16.33;11.10;;;30.10;81.60;;;;;;5070084;28;20387;-58
2021/07/20 07:51:26;;;;;;;17.53;12.70;;;28.70;83.00;;;;;;5089113;28;20386;-58
2021/07/20 07:53:58;;;;;;;16.08;11.15;;;28.20;85.20;;;;;;5088412;28;20378;-58
2021/07/20 07:56:30;;;;;;;19.20;12.13;;;28.50;86.20;;;;;;5089227;28;20409;-58
2021/07/20 07:58:59;;;;;;;14.88;10.65;;;29.00;84.90;;;;;;5088326;28;20409;-60
2021/07/20 08:01:26;;;;;;;15.10;11.40;;;29.60;82.20;;;;;;5089917;28;20397;-58
2021/07/20 08:03:54;;;;;;;16.30;11.32;;;29.60;81.50;;;;;;5081322;28;20753;-58
2021/07/20 08:06:22;;;;;;;16.90;10.52;;;30.00;81.10;;;;;;5072997;28;20390;-58
2021/07/20 08:08:51;;;;;;;18.50;11.60;;;30.10;80.70;;;;;;5071414;28;20406;-58
2021/07/20 08:11:17;;;;;;;16.75;12.30;;;30.00;80.70;;;;;;5073588;28;20944;-58
2021/07/20 08:13:44;;;;;;;17.50;11.70;;;30.20;80.90;;;;;;5074953;28;20387;-57
2021/07/20 08:16:12;;;;;;;16.83;10.40;;;30.10;81.10;;;;;;5091330;28;20410;-58
2021/07/20 08:18:40;;;;;;;17.13;9.07;;;30.50;79.80;;;;;;5088649;28;20414;-59
2021/07/20 08:21:07;;;;;;;15.30;9.63;;;30.90;78.10;;;;;;5078627;28;20534;-58
2021/07/20 08:23:34;;;;;;;15.80;12.13;;;31.30;76.40;;;;;;5092274;28;20595;-58
2021/07/20 08:26:15;;;;;;;14.75;12.85;;;30.90;75.90;;;;;;5092042;28;20869;-59
2021/07/20 08:28:50;;;;;;;13.90;10.00;;;30.60;74.00;;;;;;5088730;28;20384;-57
2021/07/20 08:31:17;;;;;;;17.00;10.45;;;30.50;75.30;;;;;;5070816;28;20392;-58
2021/07/20 08:33:45;;;;;;;17.07;10.57;;;30.40;74.90;;;;;;5071965;28;20385;-57
2021/07/20 08:36:15;;;;;;;17.67;10.10;;;31.50;71.90;;;;;;5071897;28;20392;-59
2021/07/20 08:38:44;;;;;;;16.57;11.07;;;32.40;68.70;;;;;;5070832;28;20403;-58
2021/07/20 08:41:20;;;;;;;13.40;11.35;;;32.00;68.50;;;;;;5071946;28;20881;-58
2021/07/20 08:44:19;;;;;;;17.70;12.88;;;32.30;68.20;;;;;;5080117;28;20429;-58
2021/07/20 08:47:02;;;;;;;16.05;11.40;;;32.10;68.40;;;;;;5081342;28;20819;-59
2021/07/20 08:49:48;;;;;;;15.38;10.73;;;32.30;66.90;;;;;;5092908;28;20852;-59
2021/07/20 08:52:33;;;;;;;12.32;9.88;;;31.90;67.10;;;;;;5092831;28;20386;-59
2021/07/20 08:55:06;;;;;;;14.93;11.02;;;31.20;67.90;;;;;;5091697;28;20926;-58
2021/07/20 08:57:43;;;;;;;14.85;10.80;;;31.00;69.70;;;;;;5073893;28;20455;-59
2021/07/20 09:00:12;;;;;;;14.32;9.88;;;31.60;69.50;;;;;;5083367;28;20421;-59
2021/07/20 09:03:06;;;;;;;15.73;11.18;;;32.00;67.40;;;;;;5091942;28;20481;-59
2021/07/20 09:05:48;;;;;;;17.30;11.10;;;31.90;66.50;;;;;;5092424;28;20509;-59
2021/07/20 09:08:34;;;;;;;16.05;10.38;;;31.60;66.00;;;;;;5091625;28;20393;-59
2021/07/20 09:11:21;;;;;;;17.80;10.40;;;32.20;64.60;;;;;;5089515;28;20406;-59
2021/07/20 09:13:53;;;;;;;16.27;11.30;;;32.30;61.50;;;;;;5090934;28;20386;-58
2021/07/20 09:16:35;;;;;;;15.38;12.48;;;32.80;61.30;;;;;;5082306;28;20428;-58
2021/07/20 09:19:22;;;;;;;15.30;11.70;;;33.80;58.50;;;;;;5073551;28;20416;-59
2021/07/20 09:21:50;;;;;;;16.08;11.50;;;34.10;57.50;;;;;;5090796;28;20381;-59
2021/07/20 09:24:22;;;;;;;17.35;12.35;;;33.70;57.40;;;;;;5085578;28;20375;-59
2021/07/20 09:26:55;;;;;;;14.20;11.65;;;33.40;57.50;;;;;;5072699;28;20384;-59
2021/07/20 09:29:25;;;;;;;15.77;11.75;;;33.50;57.50;;;;;;5091400;28;20389;-59
2021/07/20 09:32:08;;;;;;;16.63;12.07;;;33.00;58.10;;;;;;5076340;28;20388;-60
2021/07/20 09:34:55;;;;;;;17.15;11.32;;;33.30;57.40;;;;;;5078419;28;20482;-60
2021/07/20 09:37:28;;;;;;;14.15;9.20;;;34.10;56.60;;;;;;5082010;28;20876;-60
2021/07/20 09:40:13;;;;;;;15.82;9.10;;;34.20;55.30;;;;;;5076435;28;20415;-61
2021/07/20 09:43:13;;;;;;;14.07;9.40;;;33.60;56.60;;;;;;5077089;28;20403;-58
2021/07/20 09:45:44;;;;;;;15.68;9.75;;;34.60;54.60;;;;;;5071579;28;20406;-61
2021/07/20 09:48:24;;;;;;;15.60;8.82;;;34.50;54.80;;;;;;5080553;28;20393;-59
2021/07/20 09:51:20;;;;;;;15.10;9.93;;;34.50;54.10;;;;;;5079014;28;20489;-60
2021/07/20 09:54:08;;;;;;;17.67;10.13;;;34.40;53.10;;;;;;5074488;28;20919;-59
2021/07/20 09:56:59;;;;;;;19.27;14.23;;;33.70;53.60;;;;;;5081811;28;20388;-61
2021/07/20 09:59:48;;;;;;;17.65;10.57;;;33.20;54.40;;;;;;5078698;28;20537;-58
2021/07/20 10:02:45;;;;;;;16.80;12.30;;;32.80;55.10;;;;;;5075589;28;20402;-58
2021/07/20 10:05:13;;;;;;;17.13;12.45;;;31.50;57.30;;;;;;5086694;28;20390;-58
2021/07/20 10:07:49;;;;;;;16.23;11.90;;;32.10;56.90;;;;;;5088155;28;20397;-59
2021/07/20 10:10:27;;;;;;;19.10;12.40;;;32.20;57.10;;;;;;5089428;28;20466;-59
2021/07/20 10:13:33;;;;;;;18.08;10.95;;;32.70;55.70;;;;;;5097423;28;20384;-60
2021/07/20 10:16:36;;;;;;;21.63;11.32;;;33.60;54.60;;;;;;5088303;28;20433;-60
2021/07/20 10:19:07;;;;;;;16.17;10.20;;;33.50;54.60;;;;;;5091834;28;20492;-60
2021/07/20 10:21:37;;;;;;;17.40;10.85;;;33.50;55.70;;;;;;5091175;28;20695;-60
2021/07/20 10:24:09;;;;;;;16.77;10.30;;;34.20;53.10;;;;;;5093015;28;20399;-60
2021/07/20 10:26:58;;;;;;;16.13;10.87;;;33.50;54.00;;;;;;5089422;28;20382;-57
2021/07/20 10:29:38;;;;;;;17.35;12.23;;;32.50;55.40;;;;;;5089729;28;20554;-58
2021/07/20 10:32:19;;;;;;;18.98;12.63;;;31.70;56.60;;;;;;5089592;28;20366;-58
2021/07/20 10:34:54;;;;;;;16.88;12.07;;;31.60;56.80;;;;;;5088546;28;20476;-57
2021/07/20 10:37:27;;;;;;;15.70;11.60;;;31.90;56.90;;;;;;5090123;28;20443;-58
2021/07/20 10:40:05;;;;;;;15.93;11.65;;;31.10;57.60;;;;;;5089479;28;20406;-59
2021/07/20 10:42:34;;;;;;;17.83;11.95;;;30.40;59.30;;;;;;5090269;28;20388;-59
2021/07/20 10:45:13;;;;;;;20.23;13.97;;;29.70;59.60;;;;;;5089089;28;20374;-60
2021/07/20 10:48:11;;;;;;;17.73;13.70;;;29.30;61.40;;;;;;5089804;28;20412;-60
2021/07/20 10:51:05;;;;;;;19.00;13.52;;;29.40;62.30;;;;;;5089854;28;20381;-59
2021/07/20 10:53:35;;;;;;;17.25;13.30;;;29.10;63.80;;;;;;5090581;28;20466;-60
2021/07/20 10:56:55;;;;;;;18.17;12.88;;;29.00;64.00;;;;;;5089244;28;20844;-60
2021/07/20 10:59:43;;;;;;;19.57;13.20;;;29.00;63.90;;;;;;5026113;28;20422;-60
2021/07/20 11:02:17;;;;;;;18.90;14.30;;;29.50;62.90;;;;;;5084299;28;20501;-60
2021/07/20 11:05:04;;;;;;;19.00;14.03;;;29.30;62.60;;;;;;5082392;28;20943;-58
2021/07/20 11:07:50;;;;;;;17.40;10.70;;;28.90;62.30;;;;;;5081845;28;20485;-59
2021/07/20 11:10:44;;;;;;;22.83;13.45;;;28.60;63.30;;;;;;5084636;28;20418;-60
2021/07/20 11:13:15;;;;;;;19.30;12.33;;;28.30;64.80;;;;;;5083648;28;20477;-60
2021/07/20 11:15:51;;;;;;;18.08;12.00;;;28.30;64.30;;;;;;5086937;28;20427;-60
2021/07/20 11:18:17;;;;;;;27.83;25.23;;;29.10;63.40;;;;;;5099726;28;20455;-60
2021/07/20 11:20:44;;;;;;;28.00;25.10;;;28.60;64.20;;;;;;5087730;28;20407;-58
2021/07/20 11:23:12;;;;;;;18.00;11.20;;;29.00;63.20;;;;;;5085550;28;20392;-60
2021/07/20 11:25:39;;;;;;;18.30;11.40;;;29.40;62.30;;;;;;5084193;28;20393;-59
2021/07/20 11:28:06;;;;;;;17.83;10.00;;;29.50;62.50;;;;;;5089010;28;20515;-61
2021/07/20 11:30:35;;;;;;;18.67;10.00;;;29.30;62.50;;;;;;5104557;28;20387;-60
2021/07/20 11:33:15;;;;;;;17.45;11.00;;;28.60;64.00;;;;;;5091686;28;20445;-60
2021/07/20 11:35:47;;;;;;;18.17;10.82;;;28.60;63.60;;;;;;5100045;28;20948;-60
2021/07/20 11:38:17;;;;;;;17.83;11.13;;;28.40;64.00;;;;;;5095053;28;20393;-58
2021/07/20 11:41:06;;;;;;;18.77;10.90;;;28.50;62.40;;;;;;5079845;28;20394;-58
2021/07/20 11:43:35;;;;;;;19.80;11.17;;;27.90;66.20;;;;;;5079833;28;20889;-60
2021/07/20 11:46:12;;;;;;;14.80;9.40;;;27.90;64.30;;;;;;5081205;28;20394;-59
2021/07/20 11:49:08;;;;;;;17.58;10.57;;;27.70;65.50;;;;;;5080582;28;20509;-59
2021/07/20 11:51:47;;;;;;;17.23;10.68;;;27.80;66.90;;;;;;5079155;28;20455;-59
2021/07/20 11:54:50;;;;;;;18.02;11.00;;;28.00;66.30;;;;;;5082272;28;20394;-60
2021/07/20 11:57:43;;;;;;;20.48;15.50;;;28.60;65.00;;;;;;5084271;28;20751;-60
2021/07/20 12:00:39;;;;;;;20.20;16.20;;;28.60;64.40;;;;;;5085954;28;20410;-60
2021/07/20 12:03:39;;;;;;;18.13;15.00;;;28.40;62.30;;;;;;5063314;28;20428;-60
2021/07/20 12:06:26;;;;;;;20.35;13.15;;;28.10;63.10;;;;;;5078463;28;20888;-61
2021/07/20 12:09:19;;;;;;;17.33;10.70;;;26.90;65.10;;;;;;5096858;28;20423;-61
2021/07/20 12:11:51;;;;;;;18.00;10.45;;;27.50;65.80;;;;;;5097113;28;20384;-60
2021/07/20 12:14:18;;;;;;;17.73;10.32;;;27.70;65.60;;;;;;5103407;28;20455;-60
2021/07/20 12:16:47;;;;;;;16.07;10.47;;;27.70;65.00;;;;;;5083332;28;20402;-59
2021/07/20 12:19:36;;;;;;;19.25;10.23;;;27.40;66.10;;;;;;5089852;28;20411;-61
2021/07/20 12:22:11;;;;;;;17.67;9.82;;;27.60;65.90;;;;;;5088111;28;20416;-60
2021/07/20 12:24:38;;;;;;;16.27;9.73;;;27.70;64.80;;;;;;5081836;28;20453;-59
2021/07/20 12:27:06;;;;;;;15.38;9.15;;;27.40;65.20;;;;;;5088793;28;20388;-60
2021/07/20 12:29:41;;;;;;;18.05;9.90;;;27.30;65.70;;;;;;5082742;28;20400;-60
2021/07/20 12:32:14;;;;;;;15.63;9.50;;;27.30;65.50;;;;;;5081462;28;20382;-61
2021/07/20 12:34:43;;;;;;;14.95;9.85;;;27.70;66.90;;;;;;5081481;28;20391;-61
2021/07/20 12:37:10;;;;;;;15.50;9.85;;;28.00;62.80;;;;;;5087758;28;20739;-61
2021/07/20 12:39:41;;;;;;;15.70;8.88;;;28.00;63.10;;;;;;5086962;28;20410;-61
2021/07/20 12:42:08;;;;;;;17.13;9.10;;;28.30;59.60;;;;;;5101069;28;20381;-61
2021/07/20 12:44:37;;;;;;;20.73;9.82;;;28.70;58.80;;;;;;5088030;28;20398;-60
2021/07/20 12:47:09;;;;;;;13.80;8.05;;;28.70;59.40;;;;;;5085179;28;20386;-61
2021/07/20 12:49:38;;;;;;;13.90;8.43;;;28.50;57.70;;;;;;5092847;28;20396;-61
2021/07/20 12:52:07;;;;;;;15.27;9.60;;;27.80;58.40;;;;;;5076641;28;20423;-61
2021/07/20 12:54:39;;;;;;;15.80;9.20;;;27.50;61.00;;;;;;5080113;28;20387;-60